Joliet, IL

5:23 PM CDT on August 27, 2014 (GMT -0500)
Timber View | Change Station
CLOSE
Current Station
Personal Weather Station
Location: Joliet, IL
Elevation: 617 ft
Nearby Weather Stations

Elev 617 ft 41.53 °N, 88.16 °W | Updated 3 seconds ago

Scattered Clouds
Scattered Clouds
82.0 °F
Feels Like 80 °F
N
2.5
Wind Variable Wind from ENE
Gusts 2.9 mph

Today
High -- | Low -- °F
--% Chance of Precip.
Yesterday
High -- | Low -- °F
Precip. -- in
6:13 AM 7:33 PM
Waxing Crescent, 5% visible
Pressure 30.11 in
Visibility 10.0 miles
Clouds Scattered Clouds 3500 ft
Heat Index 80 °F
Dew Point 28 °F
Humidity 14%
Rainfall 0.00 in
Snow Depth Not available.
UV 2 out of 12
Pollen 8.80 out of 12
Ozone Good
PM2.5 Moderate
Flu Activity Not available.
METAR KJOT 272215Z AUTO 07010KT 10SM SCT035 26/18 A3011 RMK AO2 T02580176

More Conditions Fewer Conditions

Pressure 30.11 in
Visibility 10.0 miles
Clouds Scattered Clouds 3500 ft
Heat Index 80 °F
Dew Point 28 °F
Humidity 14%
Rainfall 0.00 in
Snow Depth Not available.
UV 2 out of 12
Pollen 8.80 out of 12
Ozone Good
PM2.5 Moderate
Flu Activity Not available.
METAR KJOT 272215Z AUTO 07010KT 10SM SCT035 26/18 A3011 RMK AO2 T02580176

More Conditions Fewer Conditions

10-Day Weather Forecast

Almanac

Astronomy

Aug. 27, 2014 Rise Set
Actual Time 6:13 AM CDT 7:33 PM CDT
Civil Twilight 5:44 AM CDT 8:02 PM CDT
Nautical Twilight 5:10 AM CDT 8:37 PM CDT
Astronomical Twilight 4:33 AM CDT 9:13 PM CDT
Moon 8:11 AM CDT 8:23 PM CDT
Length of Visible Light 14h 17m
Length of Day
13h 20m
Tomorrow will be 2m 38s shorter.
Waxing Crescent, 5% of the Moon is Illuminated
Today
Waxing Crescent
Sep 2
First Quarter
Sep 8
Full
Sep 15
Last Quarter
Sep 24
New

Today's Extremes

State Highs State Lows

Community

WunderPhotos

Upload Photos

1,747,806 photos uploaded!

Nearby

Air Quality

  Air Quality AQ Index Pollutant
Yesterday Moderate
PM2.5
Yesterday Good
OZONE
Current Moderate
PM2.5
Current Good
OZONE
Wednesday Moderate
PM2.5
Thursday Moderate
PM2.5

Snow Depth

Station Depth Elevation
No new snow has been reported.

Earthquake Activity

City Distance Mag. Time & Date
No recent earthquake activity has been reported nearby.
Minimum magnitude displayed is 2.5.

Coastal Water Temperatures

Place Temperature
No Stations Reporting

Nearby Weather Stations